Time;durP1;ratioP1;P1;durP2;ratioP2;P2;SDS_P1;SDS_P2;PMS_P1;PMS_P2;Temp;Humidity;BMP_temperature;BMP_pressure;BME280_temperature;BME280_humidity;BME280_pressure;Samples;Min_cycle;Max_cycle;Signal;HPM_P1;HPM_P2
2021/05/05 00:00:39;;;;;;;6.00;4.20;;;;;;;13.24;48.88;97767.73;124764;1096;64351;-80
2021/05/05 00:03:17;;;;;;;4.50;3.60;;;;;;;13.20;48.92;97763.68;124754;1095;64379;-80
2021/05/05 00:05:44;;;;;;;4.25;3.10;;;;;;;13.18;49.12;97764.66;124737;1101;64480;-81
2021/05/05 00:08:11;;;;;;;4.17;3.77;;;;;;;13.14;49.27;97760.61;124878;1101;64335;-81
2021/05/05 00:10:38;;;;;;;4.00;3.50;;;;;;;13.13;49.22;97756.23;124739;1096;64333;-80
2021/05/05 00:13:05;;;;;;;4.73;3.63;;;;;;;13.11;49.21;97766.27;124819;1101;64317;-80
2021/05/05 00:15:32;;;;;;;4.37;3.70;;;;;;;13.08;49.69;97757.67;124820;1101;64339;-80
2021/05/05 00:17:58;;;;;;;5.80;4.37;;;;;;;13.05;49.54;97752.63;124767;1101;64345;-83
2021/05/05 00:20:25;;;;;;;9.20;5.70;;;;;;;13.02;49.76;97747.58;124815;1101;64373;-81
2021/05/05 00:22:52;;;;;;;9.47;5.90;;;;;;;13.00;49.76;97746.88;124900;1101;64336;-82
2021/05/05 00:25:20;;;;;;;8.47;5.67;;;;;;;12.95;49.96;97742.84;124786;1101;64456;-81
2021/05/05 00:27:48;;;;;;;11.60;6.10;;;;;;;12.93;49.93;97744.81;124867;1101;64249;-82
2021/05/05 00:30:17;;;;;;;7.97;5.33;;;;;;;12.91;50.10;97737.92;124928;1101;64374;-82
2021/05/05 00:32:44;;;;;;;7.10;5.00;;;;;;;12.87;50.23;97725.83;124772;1101;64367;-81
2021/05/05 00:35:11;;;;;;;8.30;5.10;;;;;;;12.84;50.25;97734.98;124747;1101;64326;-80
2021/05/05 00:37:42;;;;;;;8.80;5.30;;;;;;;12.82;50.42;97736.99;124777;1101;64275;-80
2021/05/05 00:40:12;;;;;;;7.87;5.23;;;;;;;12.81;50.51;97727.27;124730;1096;64396;-80
2021/05/05 00:42:40;;;;;;;6.27;4.93;;;;;;;12.77;50.69;97725.03;124798;1097;64287;-81
2021/05/05 00:45:10;;;;;;;5.53;4.57;;;;;;;12.74;50.61;97712.80;124781;1095;64387;-78
2021/05/05 00:47:38;;;;;;;6.75;4.90;;;;;;;12.71;51.03;97734.48;124802;1096;64339;-79
2021/05/05 00:50:09;;;;;;;9.13;5.50;;;;;;;12.68;50.87;97724.92;124809;1097;64409;-80
2021/05/05 00:52:37;;;;;;;7.40;5.75;;;;;;;12.66;50.79;97718.05;124801;1096;64278;-79
2021/05/05 00:55:05;;;;;;;8.23;4.80;;;;;;;12.63;51.17;97718.34;124745;1096;64243;-80
2021/05/05 00:57:33;;;;;;;6.83;4.37;;;;;;;12.60;51.31;97707.95;124771;1096;64262;-79
2021/05/05 01:00:00;;;;;;;6.50;4.60;;;;;;;12.58;51.44;97702.73;124865;1096;64336;-80
2021/05/05 01:02:27;;;;;;;7.67;4.67;;;;;;;12.54;51.51;97697.86;124874;1101;64306;-80
2021/05/05 01:04:54;;;;;;;6.63;5.00;;;;;;;12.52;51.44;97703.34;124799;1101;64366;-80
2021/05/05 01:07:21;;;;;;;6.53;5.17;;;;;;;12.50;51.99;97699.96;124761;1096;64512;-80
2021/05/05 01:09:48;;;;;;;8.17;5.53;;;;;;;12.48;51.95;97699.26;124743;1097;64364;-80
2021/05/05 01:12:15;;;;;;;6.57;5.20;;;;;;;12.45;51.78;97700.42;124762;1097;64358;-81
2021/05/05 01:14:43;;;;;;;7.43;5.53;;;;;;;12.43;51.85;97705.06;124766;1096;64419;-82
2021/05/05 01:17:11;;;;;;;7.53;5.53;;;;;;;12.41;52.04;97693.67;124851;1101;64355;-80
2021/05/05 01:19:38;;;;;;;8.30;5.43;;;;;;;12.41;52.17;97701.69;124858;1096;64425;-79
2021/05/05 01:22:05;;;;;;;8.77;5.60;;;;;;;12.39;52.19;97697.48;124788;1096;64419;-80
2021/05/05 01:24:36;;;;;;;7.93;5.57;;;;;;;12.39;52.43;97690.30;124828;1096;64387;-79
2021/05/05 01:27:05;;;;;;;8.47;6.07;;;;;;;12.39;52.58;97687.63;124886;1101;64253;-80
2021/05/05 01:29:34;;;;;;;9.27;6.13;;;;;;;12.38;52.66;97693.14;124849;1096;64277;-79
2021/05/05 01:32:01;;;;;;;9.37;6.53;;;;;;;12.37;53.16;97686.09;124782;1101;64358;-79
2021/05/05 01:34:28;;;;;;;9.67;6.77;;;;;;;12.34;53.36;97687.23;124775;1101;64689;-79
2021/05/05 01:36:55;;;;;;;9.10;6.93;;;;;;;12.29;53.84;97681.48;124752;1096;64327;-80
2021/05/05 01:39:22;;;;;;;10.55;6.55;;;;;;;12.25;54.03;97685.44;124773;1101;64250;-80
2021/05/05 01:41:49;;;;;;;9.25;5.70;;;;;;;12.22;54.04;97685.73;124781;1095;64278;-79
2021/05/05 01:44:16;;;;;;;8.27;5.83;;;;;;;12.20;54.35;97677.86;124762;1096;64409;-79
2021/05/05 01:46:49;;;;;;;7.03;4.87;;;;;;;12.19;54.18;97678.86;124757;1101;64840;-80
2021/05/05 01:49:24;;;;;;;6.97;4.03;;;;;;;12.19;54.19;97669.98;124770;1101;64331;-81
2021/05/05 01:51:54;;;;;;;3.83;3.33;;;;;;;12.20;54.27;97672.52;124809;1097;64323;-80
2021/05/05 01:54:23;;;;;;;4.88;3.20;;;;;;;12.25;54.10;97666.75;124816;1096;64303;-79
2021/05/05 01:56:50;;;;;;;3.60;2.90;;;;;;;12.26;54.25;97666.58;124711;1101;65618;-79
2021/05/05 01:59:17;;;;;;;6.23;3.17;;;;;;;12.28;54.34;97663.78;124754;1097;64427;-80
2021/05/05 02:01:44;;;;;;;5.30;3.90;;;;;;;12.28;54.24;97653.92;124732;1101;64336;-80
2021/05/05 02:04:11;;;;;;;5.73;3.77;;;;;;;12.34;54.13;97654.33;124778;1097;64287;-79
2021/05/05 02:06:37;;;;;;;4.07;3.00;;;;;;;12.38;54.10;97647.72;124800;1101;64445;-80
2021/05/05 02:09:05;;;;;;;3.27;2.83;;;;;;;12.43;54.04;97653.47;124738;1096;64506;-80
2021/05/05 02:11:32;;;;;;;3.00;2.63;;;;;;;12.50;53.66;97652.70;124799;1096;64849;-80
2021/05/05 02:13:58;;;;;;;4.83;2.40;;;;;;;12.55;53.69;97646.08;124788;1095;64304;-80
2021/05/05 02:16:25;;;;;;;4.40;2.43;;;;;;;12.56;53.60;97643.28;124771;1101;64354;-80
2021/05/05 02:18:52;;;;;;;4.30;2.73;;;;;;;12.58;53.57;97640.44;124774;1097;64425;-81
2021/05/05 02:21:18;;;;;;;3.00;2.77;;;;;;;12.58;53.76;97637.77;124737;1097;64272;-80
2021/05/05 02:23:45;;;;;;;2.83;2.40;;;;;;;12.58;53.58;97635.92;124768;1096;65538;-79
2021/05/05 02:26:12;;;;;;;3.07;2.80;;;;;;;12.60;53.51;97635.79;124774;1101;64352;-80
2021/05/05 02:28:41;;;;;;;2.93;2.60;;;;;;;12.61;52.99;97635.66;124716;1096;64274;-80
2021/05/05 02:31:08;;;;;;;2.83;2.37;;;;;;;12.66;53.35;97635.19;124758;1101;64281;-80
2021/05/05 02:33:35;;;;;;;3.93;2.80;;;;;;;12.69;53.13;97635.75;124734;1095;64364;-80
2021/05/05 02:36:02;;;;;;;5.55;2.50;;;;;;;12.75;53.06;97626.28;124753;1096;64444;-79
2021/05/05 02:38:29;;;;;;;4.00;2.50;;;;;;;12.78;53.00;97625.14;124723;1101;64830;-79
2021/05/05 02:40:56;;;;;;;3.20;2.87;;;;;;;12.79;52.77;97627.65;124752;1097;64326;-79
2021/05/05 02:43:23;;;;;;;3.53;2.50;;;;;;;12.82;52.82;97630.05;124812;1096;64352;-80
2021/05/05 02:45:50;;;;;;;4.90;3.17;;;;;;;12.84;52.70;97619.19;124721;1101;64249;-79
2021/05/05 02:48:17;;;;;;;4.17;2.60;;;;;;;12.84;52.63;97621.86;124799;1096;64336;-80
2021/05/05 02:50:43;;;;;;;3.90;2.40;;;;;;;12.85;52.60;97621.72;124728;1101;64365;-81
2021/05/05 02:53:10;;;;;;;4.33;2.70;;;;;;;12.84;52.60;97628.04;124729;1097;64431;-79
2021/05/05 02:55:37;;;;;;;3.90;2.77;;;;;;;12.86;52.38;97619.88;124780;1096;64342;-80
2021/05/05 02:58:03;;;;;;;4.20;2.73;;;;;;;12.86;52.60;97619.88;124779;1097;64329;-79
2021/05/05 03:00:30;;;;;;;4.47;2.20;;;;;;;12.86;52.47;97615.38;124791;1101;64399;-80
2021/05/05 03:02:57;;;;;;;4.03;2.60;;;;;;;12.87;52.56;97609.02;124762;1101;64451;-81
2021/05/05 03:05:24;;;;;;;3.00;2.40;;;;;;;12.85;52.41;97602.14;124861;1097;64923;-83
2021/05/05 03:07:50;;;;;;;6.57;2.70;;;;;;;12.83;52.52;97598.80;124984;1101;64325;-80
2021/05/05 03:10:18;;;;;;;3.95;2.90;;;;;;;12.82;52.60;97607.80;124751;1101;64333;-83
2021/05/05 03:12:45;;;;;;;3.70;2.80;;;;;;;12.80;52.57;97602.61;124937;1101;64422;-81
2021/05/05 03:15:12;;;;;;;4.30;3.10;;;;;;;12.79;52.54;97608.94;124843;1096;64351;-80
2021/05/05 03:17:39;;;;;;;3.87;3.03;;;;;;;12.78;52.69;97614.45;124850;1097;64331;-82
2021/05/05 03:20:08;;;;;;;4.87;3.37;;;;;;;12.77;52.74;97620.77;124837;1097;64348;-85
2021/05/05 03:22:36;;;;;;;5.20;3.35;;;;;;;12.77;52.47;97620.77;124876;1101;64348;-80
2021/05/05 03:25:05;;;;;;;6.25;3.35;;;;;;;12.76;52.61;97616.42;124841;1095;64318;-80
2021/05/05 03:27:32;;;;;;;4.50;3.47;;;;;;;12.75;52.86;97618.27;124899;1101;64329;-79
2021/05/05 03:30:00;;;;;;;6.27;3.50;;;;;;;12.73;52.68;97618.41;124754;1101;64288;-80
2021/05/05 03:32:27;;;;;;;6.33;3.33;;;;;;;12.72;52.56;97618.57;124778;1101;64457;-79
2021/05/05 03:34:54;;;;;;;6.15;3.50;;;;;;;12.70;52.65;97631.23;124716;1101;64410;-79
2021/05/05 03:37:21;;;;;;;4.43;3.33;;;;;;;12.69;52.51;97630.40;124775;1094;64326;-79
2021/05/05 03:39:48;;;;;;;4.77;3.73;;;;;;;12.67;52.72;97632.38;124739;1096;64349;-79
2021/05/05 03:42:15;;;;;;;5.40;3.55;;;;;;;12.68;52.51;97635.88;124777;1101;64249;-79
2021/05/05 03:44:42;;;;;;;7.63;5.33;;;;;;;12.74;52.59;97640.63;124806;1101;64332;-80
2021/05/05 03:47:08;;;;;;;4.53;3.50;;;;;;;12.79;52.51;97650.88;124848;1101;64364;-79
2021/05/05 03:49:35;;;;;;;6.70;3.60;;;;;;;12.79;52.42;97643.69;124762;1101;64489;-80
2021/05/05 03:52:02;;;;;;;4.93;3.90;;;;;;;12.83;52.18;97639.73;124793;1101;64275;-80
2021/05/05 03:54:29;;;;;;;5.50;4.33;;;;;;;12.87;52.15;97648.29;124760;1101;64406;-81
2021/05/05 03:56:56;;;;;;;7.17;5.33;;;;;;;12.91;52.00;97641.66;124846;1096;64384;-81
2021/05/05 03:59:22;;;;;;;6.75;4.60;;;;;;;12.93;52.12;97645.87;124813;1101;64431;-80
2021/05/05 04:01:49;;;;;;;6.33;4.20;;;;;;;12.93;51.95;97653.89;124791;1096;64224;-80
2021/05/05 04:04:16;;;;;;;6.90;4.93;;;;;;;12.91;51.98;97644.34;124835;1097;64403;-80
2021/05/05 04:06:42;;;;;;;6.10;4.20;;;;;;;12.88;52.11;97642.80;124865;1101;64454;-80
2021/05/05 04:09:11;;;;;;;5.57;4.50;;;;;;;12.84;52.31;97646.75;124879;1101;64323;-80
2021/05/05 04:11:47;;;;;;;5.77;4.20;;;;;;;12.82;52.37;97650.57;124852;1097;64355;-80
2021/05/05 04:14:20;;;;;;;5.67;3.70;;;;;;;12.80;52.33;97644.55;124876;1101;64365;-80
2021/05/05 04:16:47;;;;;;;5.37;3.30;;;;;;;12.79;52.84;97634.84;124789;1095;64365;-80
2021/05/05 04:19:14;;;;;;;7.47;4.20;;;;;;;12.75;52.93;97642.33;124895;1096;64419;-80
2021/05/05 04:21:41;;;;;;;5.50;4.15;;;;;;;12.71;53.16;97649.78;124861;1097;64355;-82
2021/05/05 04:24:09;;;;;;;7.17;4.23;;;;;;;12.69;53.33;97638.42;124853;1096;64333;-85
2021/05/05 04:26:36;;;;;;;7.80;4.20;;;;;;;12.67;53.81;97640.39;125018;1096;64327;-82
2021/05/05 04:29:03;;;;;;;7.63;4.40;;;;;;;12.65;53.83;97645.04;125069;1101;64415;-80
2021/05/05 04:31:33;;;;;;;6.40;4.63;;;;;;;12.63;54.26;97641.67;124914;1101;64392;-81
2021/05/05 04:34:00;;;;;;;8.83;6.70;;;;;;;12.65;54.14;97638.86;124868;1101;64328;-81
2021/05/05 04:36:27;;;;;;;9.83;6.10;;;;;;;12.65;54.10;97639.70;124779;1096;64446;-80
2021/05/05 04:38:54;;;;;;;7.70;5.57;;;;;;;12.66;54.77;97646.71;124787;1096;64476;-80
2021/05/05 04:41:21;;;;;;;8.90;6.53;;;;;;;12.68;54.80;97646.58;124796;1101;64336;-79
2021/05/05 04:43:47;;;;;;;11.13;7.33;;;;;;;12.70;54.90;97649.95;124760;1096;64409;-79
2021/05/05 04:46:14;;;;;;;9.30;7.30;;;;;;;12.73;55.09;97649.64;124827;1101;64278;-81
2021/05/05 04:48:41;;;;;;;9.87;7.47;;;;;;;12.77;55.22;97650.17;124789;1101;64355;-79
2021/05/05 04:51:08;;;;;;;9.37;7.63;;;;;;;12.85;55.22;97652.94;124739;1101;64371;-79
2021/05/05 04:53:34;;;;;;;12.40;7.87;;;;;;;12.92;55.33;97632.64;124770;1095;64326;-80
2021/05/05 04:56:01;;;;;;;9.20;6.70;;;;;;;13.02;55.21;97636.09;124761;1101;64393;-80
2021/05/05 04:58:28;;;;;;;9.50;7.60;;;;;;;13.14;55.54;97639.41;124786;1101;64317;-79
2021/05/05 05:00:54;;;;;;;7.07;5.40;;;;;;;13.22;55.66;97643.96;124823;1101;64239;-79
2021/05/05 05:03:21;;;;;;;6.27;5.23;;;;;;;13.33;55.07;97647.30;124768;1101;64456;-81
2021/05/05 05:05:48;;;;;;;6.47;4.80;;;;;;;13.48;55.08;97641.39;124829;1101;64319;-80
2021/05/05 05:08:15;;;;;;;6.23;4.47;;;;;;;13.64;54.60;97638.88;124764;1102;64250;-79
2021/05/05 05:10:42;;;;;;;6.15;4.90;;;;;;;13.82;53.92;97634.33;124772;1101;64332;-80
2021/05/05 05:13:09;;;;;;;7.90;4.37;;;;;;;14.00;53.57;97631.58;124813;1101;64326;-80
2021/05/05 05:15:36;;;;;;;8.00;4.73;;;;;;;14.18;53.23;97633.36;124750;1101;64259;-81
2021/05/05 05:18:03;;;;;;;7.13;5.13;;;;;;;14.36;52.94;97634.13;124796;1101;64349;-80
2021/05/05 05:20:30;;;;;;;7.57;4.47;;;;;;;14.55;52.57;97635.75;124891;1101;64252;-78
2021/05/05 05:22:56;;;;;;;6.65;4.20;;;;;;;14.80;52.12;97636.70;124758;1101;64265;-80
2021/05/05 05:25:25;;;;;;;5.75;4.00;;;;;;;15.08;51.49;97626.52;124695;1101;64327;-80
2021/05/05 05:27:52;;;;;;;6.17;3.97;;;;;;;15.40;51.20;97624.88;124779;1101;64493;-79
2021/05/05 05:30:20;;;;;;;6.53;4.13;;;;;;;15.75;50.81;97620.24;124781;1101;64247;-80
2021/05/05 05:32:48;;;;;;;5.87;4.50;;;;;;;15.99;50.61;97628.27;124890;1097;64278;-79
2021/05/05 05:35:15;;;;;;;8.80;5.03;;;;;;;16.27;50.64;97627.02;124779;1095;64275;-79
2021/05/05 05:37:42;;;;;;;6.80;4.40;;;;;;;16.53;50.15;97627.59;124767;1096;64394;-80
2021/05/05 05:40:10;;;;;;;5.30;3.50;;;;;;;16.71;49.82;97631.91;124736;1096;64291;-79
2021/05/05 05:42:40;;;;;;;6.47;3.60;;;;;;;16.92;49.06;97628.65;124888;1096;64327;-81
2021/05/05 05:45:07;;;;;;;7.90;3.33;;;;;;;17.13;48.47;97631.55;124785;1096;64330;-79
2021/05/05 05:47:34;;;;;;;4.77;3.30;;;;;;;17.25;48.64;97627.44;124786;1101;64272;-82
2021/05/05 05:50:01;;;;;;;4.77;3.10;;;;;;;17.39;48.14;97617.74;124793;1097;64467;-81
2021/05/05 05:52:28;;;;;;;5.30;2.90;;;;;;;17.65;47.55;97616.55;124878;1101;64422;-85
2021/05/05 05:54:57;;;;;;;5.77;3.03;;;;;;;17.93;47.06;97608.72;124756;1096;64272;-82
2021/05/05 05:57:24;;;;;;;3.80;2.40;;;;;;;18.17;46.26;97613.05;124838;1096;64250;-80
2021/05/05 05:59:51;;;;;;;3.43;2.23;;;;;;;18.41;45.86;97609.24;124888;1096;64359;-80
2021/05/05 06:02:18;;;;;;;4.10;2.80;;;;;;;18.45;45.54;97610.53;124770;1101;64425;-84
2021/05/05 06:04:44;;;;;;;4.60;2.70;;;;;;;18.42;45.63;97605.51;124832;1097;64441;-83
2021/05/05 06:07:14;;;;;;;4.83;3.00;;;;;;;18.38;45.31;97602.36;124838;1097;64339;-81
2021/05/05 06:09:43;;;;;;;4.60;3.15;;;;;;;18.43;45.14;97599.08;124842;1101;64426;-80
2021/05/05 06:12:10;;;;;;;2.83;2.40;;;;;;;18.52;45.09;97595.28;124786;1096;64333;-82
2021/05/05 06:14:37;;;;;;;3.27;2.53;;;;;;;18.60;45.20;97594.34;124822;1097;64278;-82
2021/05/05 06:17:04;;;;;;;3.20;2.80;;;;;;;18.66;44.98;97598.97;124870;1096;64336;-82
2021/05/05 06:19:31;;;;;;;2.77;2.43;;;;;;;18.67;44.94;97591.70;124827;1101;64336;-82
2021/05/05 06:21:57;;;;;;;3.10;2.77;;;;;;;18.71;44.82;97587.63;124907;1097;64271;-80
2021/05/05 06:24:24;;;;;;;5.17;2.77;;;;;;;18.74;44.42;97587.23;124934;1101;64435;-81
2021/05/05 06:26:51;;;;;;;6.63;2.67;;;;;;;18.86;44.40;97580.37;124900;1096;64579;-79
2021/05/05 06:29:24;;;;;;;4.03;2.60;;;;;;;19.10;44.35;97579.17;124819;1101;64355;-81
2021/05/05 06:31:51;;;;;;;3.27;2.57;;;;;;;19.17;44.22;97571.98;124862;1102;64278;-81
2021/05/05 06:34:18;;;;;;;3.65;2.25;;;;;;;19.57;43.54;97566.95;124872;1097;64345;-80
2021/05/05 06:36:44;;;;;;;4.63;2.13;;;;;;;20.25;42.78;97571.81;124803;1101;64275;-80
2021/05/05 06:39:11;;;;;;;2.90;2.30;;;;;;;20.60;43.13;97568.09;124817;1097;64347;-81
2021/05/05 06:41:40;;;;;;;2.97;2.27;;;;;;;20.66;42.38;97566.44;124846;1097;64413;-81
2021/05/05 06:44:08;;;;;;;2.60;2.00;;;;;;;20.60;42.08;97564.55;124812;1101;65511;-80
2021/05/05 06:46:42;;;;;;;4.07;2.13;;;;;;;20.83;42.00;97561.53;124837;1097;64329;-81
2021/05/05 06:49:12;;;;;;;3.33;2.40;;;;;;;20.96;41.53;97558.86;124836;1096;64262;-81
2021/05/05 06:51:40;;;;;;;5.53;2.37;;;;;;;20.87;41.53;97556.53;124837;1101;64426;-81
2021/05/05 06:54:08;;;;;;;3.15;2.80;;;;;;;21.06;41.05;97558.44;124862;1101;64513;-81
2021/05/05 06:56:35;;;;;;;2.83;2.27;;;;;;;21.19;40.76;97560.35;124928;1097;64651;-81
2021/05/05 06:59:02;;;;;;;5.27;2.70;;;;;;;21.39;40.58;97547.70;124934;1096;64346;-80
2021/05/05 07:01:29;;;;;;;3.90;2.50;;;;;;;21.45;40.06;97549.58;124912;1095;64399;-80
2021/05/05 07:03:56;;;;;;;2.80;2.55;;;;;;;21.32;40.41;97549.53;124914;1100;64472;-80
2021/05/05 07:06:23;;;;;;;3.30;2.10;;;;;;;21.13;40.28;97544.93;124836;1101;64392;-81
2021/05/05 07:08:50;;;;;;;4.37;2.70;;;;;;;21.03;40.42;97537.19;124854;1101;64326;-80
2021/05/05 07:11:17;;;;;;;3.70;2.60;;;;;;;20.94;40.65;97533.84;124957;1096;64246;-80
2021/05/05 07:13:43;;;;;;;3.03;2.33;;;;;;;20.87;40.81;97537.57;124928;1097;64428;-80
2021/05/05 07:16:10;;;;;;;3.63;2.57;;;;;;;20.78;40.48;97535.05;124911;1101;64450;-81
2021/05/05 07:18:37;;;;;;;4.30;2.33;;;;;;;20.66;40.08;97542.08;124849;1101;64401;-81
2021/05/05 07:21:04;;;;;;;2.77;1.53;;;;;;;20.55;39.91;97545.38;124971;1096;64323;-81
2021/05/05 07:23:31;;;;;;;4.90;2.10;;;;;;;20.30;39.41;97540.45;124910;1101;64323;-80
2021/05/05 07:25:57;;;;;;;1.95;1.65;;;;;;;20.11;39.17;97535.75;124813;1101;64332;-81
2021/05/05 07:28:24;;;;;;;1.67;1.40;;;;;;;20.00;38.01;97544.42;124906;1096;64508;-81
2021/05/05 07:30:51;;;;;;;2.97;1.57;;;;;;;19.78;38.91;97536.38;124956;1096;64333;-81
2021/05/05 07:33:18;;;;;;;3.70;2.03;;;;;;;19.73;39.24;97536.13;124821;1101;64342;-82
2021/05/05 07:35:50;;;;;;;3.73;2.13;;;;;;;19.76;39.08;97532.20;124816;1101;64329;-81
2021/05/05 07:42:05;;;;;;;3.27;1.50;;;;;;;19.72;39.45;97529.89;124781;1101;64272;-80
2021/05/05 07:44:25;;;;;;;2.50;1.57;;;;;;;19.80;40.15;97519.94;124821;1101;64384;-81
2021/05/05 07:49:13;;;;;;;3.17;1.87;;;;;;;19.87;40.03;97512.72;124867;1096;64262;-80
2021/05/05 07:51:42;;;;;;;2.70;1.60;;;;;;;19.97;39.43;97515.08;124891;1096;64326;-81
2021/05/05 07:54:10;;;;;;;4.20;2.10;;;;;;;19.98;39.04;97500.51;124892;1101;64367;-85
2021/05/05 07:56:37;;;;;;;1.80;1.70;;;;;;;19.99;39.37;97507.61;125283;1101;64496;-84
2021/05/05 07:59:05;;;;;;;4.17;1.57;;;;;;;20.01;39.17;97505.52;124940;1097;64409;-81
2021/05/05 08:01:33;;;;;;;4.80;1.80;;;;;;;19.90;38.34;97505.03;124998;1097;64330;-83
2021/05/05 08:04:03;;;;;;;3.95;1.80;;;;;;;19.89;38.60;97497.14;124947;1101;64336;-84
2021/05/05 08:06:30;;;;;;;3.07;1.57;;;;;;;19.97;38.82;97493.45;125027;1101;64376;-88
2021/05/05 08:08:57;;;;;;;4.25;1.70;;;;;;;20.13;38.88;97482.29;125146;1101;64398;-87
2021/05/05 08:11:27;;;;;;;2.35;1.63;;;;;;;20.28;39.62;97485.70;125135;1097;64480;-85
2021/05/05 08:13:54;;;;;;;1.83;1.43;;;;;;;20.44;39.90;97486.39;125038;1096;64339;-84
2021/05/05 08:16:21;;;;;;;1.85;1.35;;;;;;;20.55;38.27;97483.13;125025;1096;64437;-84
2021/05/05 08:18:49;;;;;;;2.03;1.90;;;;;;;20.48;37.69;97482.23;124942;1101;64470;-83
2021/05/05 08:21:17;;;;;;;3.70;1.80;;;;;;;20.52;38.47;97481.63;124892;1101;64335;-83
2021/05/05 08:23:44;;;;;;;2.17;1.60;;;;;;;20.57;37.94;97481.88;124900;1095;64320;-84
2021/05/05 08:26:11;;;;;;;2.10;1.70;;;;;;;20.42;38.30;97478.46;124955;1101;64310;-81
2021/05/05 08:28:39;;;;;;;4.60;1.67;;;;;;;20.58;38.41;97474.59;124824;1101;64332;-80
2021/05/05 08:31:07;;;;;;;2.80;1.70;;;;;;;20.73;37.77;97469.02;124850;1101;64393;-80
2021/05/05 08:33:34;;;;;;;2.03;1.73;;;;;;;20.67;37.03;97473.38;124755;1101;64381;-80
2021/05/05 08:36:02;;;;;;;1.93;1.80;;;;;;;20.74;37.51;97468.80;124758;1101;64365;-83
2021/05/05 08:38:29;;;;;;;1.90;1.33;;;;;;;20.85;37.24;97467.36;124833;1097;64319;-81
2021/05/05 08:40:55;;;;;;;2.80;1.45;;;;;;;20.96;37.70;97458.65;124960;1101;64378;-83
2021/05/05 08:43:22;;;;;;;2.47;1.77;;;;;;;21.16;38.31;97449.69;124805;1097;64537;-85
2021/05/05 08:45:56;;;;;;;2.77;1.47;;;;;;;21.33;37.48;97456.38;124900;1097;64223;-81
2021/05/05 08:48:23;;;;;;;1.40;1.30;;;;;;;21.29;36.29;97452.40;124920;1096;64332;-82
2021/05/05 08:50:50;;;;;;;2.87;1.17;;;;;;;21.42;36.52;97443.47;124786;1101;64330;-84
2021/05/05 08:53:17;;;;;;;2.30;1.77;;;;;;;21.66;36.36;97433.84;124807;1101;64316;-83
2021/05/05 08:55:44;;;;;;;2.50;1.60;;;;;;;21.80;35.38;97431.92;124846;1101;64454;-81
2021/05/05 08:58:11;;;;;;;3.13;1.50;;;;;;;21.95;35.50;97437.94;124845;1096;64897;-81
2021/05/05 09:00:40;;;;;;;3.70;1.70;;;;;;;22.17;35.04;97422.22;124824;1101;64349;-79
2021/05/05 09:03:08;;;;;;;1.53;1.43;;;;;;;22.33;34.08;97427.18;124830;1101;64320;-81
2021/05/05 09:05:52;;;;;;;3.10;1.80;;;;;;;22.38;34.58;97422.97;124780;1096;64384;-80
2021/05/05 09:08:21;;;;;;;4.47;2.60;;;;;;;22.54;33.19;97409.73;124791;1096;64493;-79
2021/05/05 09:10:55;;;;;;;2.13;1.53;;;;;;;22.35;33.13;97408.80;124798;1097;64419;-81
2021/05/05 09:13:43;;;;;;;2.33;1.73;;;;;;;22.47;33.46;97408.94;124766;1096;64299;-81
2021/05/05 09:16:12;;;;;;;2.67;1.43;;;;;;;22.76;33.69;97399.35;124816;1101;64300;-80
2021/05/05 09:18:57;;;;;;;3.05;2.20;;;;;;;22.86;33.19;97407.02;124819;1097;64269;-80
2021/05/05 09:21:38;;;;;;;2.55;1.75;;;;;;;22.89;33.12;97401.14;124779;1101;64419;-79
2021/05/05 09:24:29;;;;;;;4.30;1.33;;;;;;;23.04;32.18;97402.73;124862;1095;64336;-79
2021/05/05 09:27:09;;;;;;;3.33;1.87;;;;;;;23.11;33.10;97387.20;124786;1096;64326;-80
2021/05/05 09:29:44;;;;;;;;;;;;;;;23.23;32.87;97394.41;124898;1101;64336;-80
2021/05/05 09:32:21;;;;;;;2.33;1.77;;;;;;;23.14;31.98;97386.75;124843;1101;64329;-80
2021/05/05 09:35:09;;;;;;;1.87;1.50;;;;;;;22.87;30.88;97381.52;124847;1096;64330;-79
2021/05/05 09:37:35;;;;;;;3.53;1.37;;;;;;;22.47;31.30;97387.22;124805;1101;64397;-81
2021/05/05 09:40:07;;;;;;;1.70;1.60;;;;;;;22.40;31.73;97391.02;124713;1101;64326;-80
2021/05/05 09:42:35;;;;;;;3.70;1.50;;;;;;;22.58;32.15;97391.12;124739;1097;64333;-80
2021/05/05 09:45:07;;;;;;;3.60;1.73;;;;;;;22.76;31.61;97379.52;124762;1101;64828;-81
2021/05/05 09:47:54;;;;;;;2.17;1.53;;;;;;;22.93;31.90;97377.08;124838;1096;64398;-81
2021/05/05 09:50:43;;;;;;;14.10;2.83;;;;;;;22.93;31.70;97379.80;124916;1101;64434;-82
2021/05/05 09:53:26;;;;;;;5.03;1.97;;;;;;;22.71;31.43;97376.63;124853;1097;64328;-80
2021/05/05 09:55:53;;;;;;;2.80;1.90;;;;;;;22.80;32.38;97361.70;124775;1097;64259;-82
2021/05/05 09:58:21;;;;;;;2.63;1.77;;;;;;;23.14;31.36;97359.58;124763;1101;64329;-81
2021/05/05 10:01:04;;;;;;;5.00;1.60;;;;;;;22.88;30.55;97369.61;124739;1096;64349;-79
2021/05/05 10:03:43;;;;;;;7.73;2.23;;;;;;;22.98;30.71;97369.95;124856;1101;64304;-80
2021/05/05 10:06:33;;;;;;;2.83;1.77;;;;;;;23.23;31.00;97374.56;124945;1102;64336;-80
2021/05/05 10:09:01;;;;;;;3.07;2.30;;;;;;;23.14;31.01;97367.73;124848;1101;64323;-79
2021/05/05 10:11:34;;;;;;;2.65;1.60;;;;;;;23.06;31.05;97377.00;124787;1101;64303;-79
2021/05/05 10:14:05;;;;;;;3.17;1.73;;;;;;;23.08;30.65;97364.02;124751;1101;64402;-80
2021/05/05 10:16:35;;;;;;;3.70;1.80;;;;;;;23.32;31.68;97353.36;124789;1097;64332;-78
2021/05/05 10:19:04;;;;;;;2.73;1.50;;;;;;;23.68;31.23;97366.16;124739;1097;64735;-80
2021/05/05 10:21:32;;;;;;;3.07;1.73;;;;;;;23.82;31.90;97372.30;124861;1101;64351;-79
2021/05/05 10:24:00;;;;;;;2.67;1.83;;;;;;;23.82;30.16;97367.69;124908;1096;64345;-80
2021/05/05 10:26:28;;;;;;;2.30;1.80;;;;;;;23.47;30.21;97370.14;124833;1102;64316;-81
2021/05/05 10:28:55;;;;;;;5.07;1.90;;;;;;;23.54;31.23;97361.91;124916;1101;64373;-79
2021/05/05 10:31:26;;;;;;;4.77;1.90;;;;;;;23.61;31.90;97362.67;124834;1101;64350;-80
2021/05/05 10:33:59;;;;;;;1.70;1.60;;;;;;;23.49;30.72;97362.60;124822;1101;64365;-81
2021/05/05 10:36:39;;;;;;;2.33;1.73;;;;;;;23.11;30.21;97365.47;124839;1096;64333;-79
2021/05/05 10:39:32;;;;;;;4.40;2.17;;;;;;;22.92;31.46;97370.81;124867;1101;64448;-80
2021/05/05 10:41:59;;;;;;;6.77;2.20;;;;;;;22.91;31.76;97371.88;124919;1101;64480;-80
2021/05/05 10:44:54;;;;;;;3.15;2.10;;;;;;;22.63;31.08;97371.47;124846;1101;64355;-80
2021/05/05 10:47:29;;;;;;;3.27;2.00;;;;;;;22.32;31.58;97370.39;124814;1101;64337;-80
2021/05/05 10:50:06;;;;;;;2.63;2.10;;;;;;;22.21;32.40;97368.38;124899;1101;64400;-79
2021/05/05 10:52:42;;;;;;;3.53;2.00;;;;;;;22.06;32.55;97380.28;124843;1101;64260;-81
2021/05/05 10:55:13;;;;;;;2.00;1.90;;;;;;;21.87;32.61;97382.04;124812;1096;64326;-80
2021/05/05 10:57:41;;;;;;;4.63;2.00;;;;;;;21.69;32.24;97377.30;124929;1097;64448;-81
2021/05/05 11:00:14;;;;;;;2.23;2.03;;;;;;;21.65;32.45;97378.78;124970;1101;64326;-80
2021/05/05 11:02:44;;;;;;;3.60;1.90;;;;;;;21.51;32.70;97390.69;124962;1101;64323;-80
2021/05/05 11:05:18;;;;;;;;;;;;;;;21.31;33.25;97379.04;124894;1101;64586;-80
2021/05/05 11:08:00;;;;;;;3.70;2.10;;;;;;;21.09;34.09;97384.69;124753;1101;64410;-81
2021/05/05 11:13:24;;;;;;;4.17;2.03;;;;;;;20.49;34.69;97390.02;124800;1095;64326;-80
2021/05/05 11:15:50;;;;;;;4.70;1.80;;;;;;;20.25;35.13;97394.13;124730;1101;64306;-79
2021/05/05 11:18:39;;;;;;;4.40;2.33;;;;;;;20.11;35.34;97398.63;124760;1095;64432;-80
2021/05/05 11:21:33;;;;;;;7.97;3.60;;;;;;;19.97;36.83;97404.21;124746;1101;64444;-81
2021/05/05 11:24:00;;;;;;;3.80;2.73;;;;;;;19.56;39.58;97413.09;124792;1101;64361;-84
2021/05/05 11:26:32;;;;;;;4.60;2.97;;;;;;;19.08;40.96;97411.11;124855;1101;64261;-83
2021/05/05 11:29:01;;;;;;;4.25;3.10;;;;;;;18.75;41.15;97430.56;124952;1096;64325;-83
2021/05/05 11:31:50;;;;;;;6.60;3.83;;;;;;;18.32;44.11;97456.61;124827;1101;64298;-82
2021/05/05 11:34:23;;;;;;;5.53;4.23;;;;;;;17.89;45.70;97468.11;124838;1101;64252;-83
2021/05/05 11:36:56;;;;;;;7.37;4.57;;;;;;;17.56;48.17;97467.59;124873;1097;64337;-84
2021/05/05 11:39:26;;;;;;;10.45;9.35;;;;;;;17.25;50.45;97475.83;124737;1097;64320;-82
2021/05/05 11:41:59;;;;;;;7.40;5.77;;;;;;;17.11;51.30;97464.84;124824;1096;64390;-80
2021/05/05 11:44:43;;;;;;;9.00;6.87;;;;;;;17.08;50.93;97465.19;124744;1097;64490;-81